sensor_id;sensor_type;location;lat;lon;timestamp;P1;durP1;ratioP1;P2;durP2;ratioP2
12721;SDS011;6425;50.316;8.114;2024-03-06T00:00:02;35.2;;;16.3;;
12721;SDS011;6425;50.316;8.114;2024-03-06T00:03:00;35.2;;;16.3;;
12721;SDS011;6425;50.316;8.114;2024-03-06T00:06:00;37.3;;;15.5;;
12721;SDS011;6425;50.316;8.114;2024-03-06T00:09:00;37.3;;;15.5;;
12721;SDS011;6425;50.316;8.114;2024-03-06T00:12:01;34.3;;;15.5;;
12721;SDS011;6425;50.316;8.114;2024-03-06T00:15:00;39.5;;;15;;
12721;SDS011;6425;50.316;8.114;2024-03-06T00:18:00;39.5;;;15;;
12721;SDS011;6425;50.316;8.114;2024-03-06T00:21:00;31.9;;;15.4;;
12721;SDS011;6425;50.316;8.114;2024-03-06T00:24:00;31.9;;;15.4;;
12721;SDS011;6425;50.316;8.114;2024-03-06T00:27:00;33.6;;;14.5;;
12721;SDS011;6425;50.316;8.114;2024-03-06T00:30:00;29.9;;;13.9;;
12721;SDS011;6425;50.316;8.114;2024-03-06T00:33:00;29.9;;;13.9;;
12721;SDS011;6425;50.316;8.114;2024-03-06T00:36:00;35.3;;;14.2;;
12721;SDS011;6425;50.316;8.114;2024-03-06T00:39:00;35.3;;;14.2;;
12721;SDS011;6425;50.316;8.114;2024-03-06T00:42:00;31.3;;;14.5;;
12721;SDS011;6425;50.316;8.114;2024-03-06T00:45:00;26.3;;;12.7;;
12721;SDS011;6425;50.316;8.114;2024-03-06T00:48:00;26.3;;;12.7;;
12721;SDS011;6425;50.316;8.114;2024-03-06T00:51:00;45.6;;;12.6;;
12721;SDS011;6425;50.316;8.114;2024-03-06T00:54:00;45.6;;;12.6;;
12721;SDS011;6425;50.316;8.114;2024-03-06T00:57:00;17.5;;;8.7;;
12721;SDS011;6425;50.316;8.114;2024-03-06T01:00:02;22.1;;;8;;
12721;SDS011;6425;50.316;8.114;2024-03-06T01:03:00;22.1;;;8;;
12721;SDS011;6425;50.316;8.114;2024-03-06T01:06:00;19.8;;;8.3;;
12721;SDS011;6425;50.316;8.114;2024-03-06T01:09:00;19.8;;;8.3;;
12721;SDS011;6425;50.316;8.114;2024-03-06T01:12:00;17.1;;;9;;
12721;SDS011;6425;50.316;8.114;2024-03-06T01:15:00;19.5;;;9.5;;
12721;SDS011;6425;50.316;8.114;2024-03-06T01:18:00;19.5;;;9.5;;
12721;SDS011;6425;50.316;8.114;2024-03-06T01:21:00;18.2;;;9.3;;
12721;SDS011;6425;50.316;8.114;2024-03-06T01:24:02;18.2;;;9.3;;
12721;SDS011;6425;50.316;8.114;2024-03-06T01:27:00;18.8;;;8.4;;
12721;SDS011;6425;50.316;8.114;2024-03-06T01:30:00;18.6;;;9.1;;
12721;SDS011;6425;50.316;8.114;2024-03-06T01:33:00;18.6;;;9.1;;
12721;SDS011;6425;50.316;8.114;2024-03-06T01:36:00;19.4;;;8.7;;
12721;SDS011;6425;50.316;8.114;2024-03-06T01:39:00;19.4;;;8.7;;
12721;SDS011;6425;50.316;8.114;2024-03-06T01:42:00;15.1;;;8.5;;
12721;SDS011;6425;50.316;8.114;2024-03-06T01:45:00;14.9;;;7.6;;
12721;SDS011;6425;50.316;8.114;2024-03-06T01:48:01;14.9;;;7.6;;
12721;SDS011;6425;50.316;8.114;2024-03-06T01:51:01;14.2;;;8.3;;
12721;SDS011;6425;50.316;8.114;2024-03-06T01:54:00;14.2;;;8.3;;
12721;SDS011;6425;50.316;8.114;2024-03-06T01:57:00;13.5;;;7.6;;
12721;SDS011;6425;50.316;8.114;2024-03-06T02:00:02;19.1;;;8.2;;
12721;SDS011;6425;50.316;8.114;2024-03-06T02:03:00;19.1;;;8.2;;
12721;SDS011;6425;50.316;8.114;2024-03-06T02:06:00;15.5;;;7.6;;
12721;SDS011;6425;50.316;8.114;2024-03-06T02:09:00;15.5;;;7.6;;
12721;SDS011;6425;50.316;8.114;2024-03-06T02:12:02;15.3;;;7.4;;
12721;SDS011;6425;50.316;8.114;2024-03-06T02:15:00;15.4;;;7.1;;
12721;SDS011;6425;50.316;8.114;2024-03-06T02:18:04;15.4;;;7.1;;
12721;SDS011;6425;50.316;8.114;2024-03-06T02:21:00;11.2;;;6.2;;
12721;SDS011;6425;50.316;8.114;2024-03-06T02:24:02;11.2;;;6.2;;
12721;SDS011;6425;50.316;8.114;2024-03-06T02:27:00;13.1;;;6.4;;
12721;SDS011;6425;50.316;8.114;2024-03-06T02:30:00;15.2;;;7.3;;
12721;SDS011;6425;50.316;8.114;2024-03-06T02:33:00;15.2;;;7.3;;
12721;SDS011;6425;50.316;8.114;2024-03-06T02:36:00;12;;;6.3;;
12721;SDS011;6425;50.316;8.114;2024-03-06T02:39:00;17.3;;;7.1;;
12721;SDS011;6425;50.316;8.114;2024-03-06T02:42:00;17.3;;;7.1;;
12721;SDS011;6425;50.316;8.114;2024-03-06T02:45:00;21.5;;;8.9;;
12721;SDS011;6425;50.316;8.114;2024-03-06T02:48:01;21.5;;;8.9;;
12721;SDS011;6425;50.316;8.114;2024-03-06T02:51:00;16.3;;;8.2;;
12721;SDS011;6425;50.316;8.114;2024-03-06T02:54:00;13.5;;;6.2;;
12721;SDS011;6425;50.316;8.114;2024-03-06T02:57:00;13.5;;;6.2;;
12721;SDS011;6425;50.316;8.114;2024-03-06T03:00:03;14.8;;;7.3;;
12721;SDS011;6425;50.316;8.114;2024-03-06T03:03:00;14.8;;;7.3;;
12721;SDS011;6425;50.316;8.114;2024-03-06T03:06:00;14.9;;;7.4;;
12721;SDS011;6425;50.316;8.114;2024-03-06T03:09:00;11.9;;;6.7;;
12721;SDS011;6425;50.316;8.114;2024-03-06T03:12:00;11.9;;;6.7;;
12721;SDS011;6425;50.316;8.114;2024-03-06T03:15:00;17.1;;;7.2;;
12721;SDS011;6425;50.316;8.114;2024-03-06T03:18:00;17.1;;;7.2;;
12721;SDS011;6425;50.316;8.114;2024-03-06T03:21:00;13.8;;;7.4;;
12721;SDS011;6425;50.316;8.114;2024-03-06T03:24:00;13.8;;;6.9;;
12721;SDS011;6425;50.316;8.114;2024-03-06T03:27:00;13.8;;;6.9;;
12721;SDS011;6425;50.316;8.114;2024-03-06T03:30:00;15.8;;;7.7;;
12721;SDS011;6425;50.316;8.114;2024-03-06T03:33:00;15.8;;;7.7;;
12721;SDS011;6425;50.316;8.114;2024-03-06T03:36:00;15.7;;;7.6;;
12721;SDS011;6425;50.316;8.114;2024-03-06T03:39:00;16;;;8.1;;
12721;SDS011;6425;50.316;8.114;2024-03-06T03:42:00;16;;;8.1;;
12721;SDS011;6425;50.316;8.114;2024-03-06T03:45:00;17.3;;;7.7;;
12721;SDS011;6425;50.316;8.114;2024-03-06T03:48:00;17.3;;;7.7;;
12721;SDS011;6425;50.316;8.114;2024-03-06T03:51:00;14.5;;;7.7;;
12721;SDS011;6425;50.316;8.114;2024-03-06T03:54:00;14.1;;;7;;
12721;SDS011;6425;50.316;8.114;2024-03-06T03:57:00;14.1;;;7;;
12721;SDS011;6425;50.316;8.114;2024-03-06T04:00:00;15.5;;;7.4;;
12721;SDS011;6425;50.316;8.114;2024-03-06T04:03:00;15.5;;;7.4;;
12721;SDS011;6425;50.316;8.114;2024-03-06T04:06:00;14;;;6.3;;
12721;SDS011;6425;50.316;8.114;2024-03-06T04:09:00;16.1;;;7;;
12721;SDS011;6425;50.316;8.114;2024-03-06T04:12:00;16.1;;;7;;
12721;SDS011;6425;50.316;8.114;2024-03-06T04:15:00;14.2;;;7.1;;
12721;SDS011;6425;50.316;8.114;2024-03-06T04:18:00;14.2;;;7.1;;
12721;SDS011;6425;50.316;8.114;2024-03-06T04:21:01;22.5;;;6.9;;
12721;SDS011;6425;50.316;8.114;2024-03-06T04:24:00;203.7;;;17.6;;
12721;SDS011;6425;50.316;8.114;2024-03-06T04:27:00;203.7;;;17.6;;
12721;SDS011;6425;50.316;8.114;2024-03-06T04:30:00;162.4;;;15.1;;
12721;SDS011;6425;50.316;8.114;2024-03-06T04:33:00;162.4;;;15.1;;
12721;SDS011;6425;50.316;8.114;2024-03-06T04:36:01;123.3;;;12.5;;
12721;SDS011;6425;50.316;8.114;2024-03-06T04:39:00;226.1;;;17.8;;
12721;SDS011;6425;50.316;8.114;2024-03-06T04:42:00;226.1;;;17.8;;
12721;SDS011;6425;50.316;8.114;2024-03-06T04:45:00;131;;;14;;
12721;SDS011;6425;50.316;8.114;2024-03-06T04:48:00;131;;;14;;
12721;SDS011;6425;50.316;8.114;2024-03-06T04:51:00;101.4;;;14.9;;
12721;SDS011;6425;50.316;8.114;2024-03-06T04:54:00;157.3;;;17;;
12721;SDS011;6425;50.316;8.114;2024-03-06T04:57:00;157.3;;;17;;
12721;SDS011;6425;50.316;8.114;2024-03-06T05:00:00;150;;;16.2;;
12721;SDS011;6425;50.316;8.114;2024-03-06T05:03:00;150;;;16.2;;
12721;SDS011;6425;50.316;8.114;2024-03-06T05:06:00;272.2;;;17.9;;
12721;SDS011;6425;50.316;8.114;2024-03-06T05:09:00;142.7;;;12.6;;
12721;SDS011;6425;50.316;8.114;2024-03-06T05:12:00;142.7;;;12.6;;
12721;SDS011;6425;50.316;8.114;2024-03-06T05:15:00;70.5;;;10.4;;
12721;SDS011;6425;50.316;8.114;2024-03-06T05:18:00;55.7;;;10.2;;
12721;SDS011;6425;50.316;8.114;2024-03-06T05:21:00;41;;;10.1;;
12721;SDS011;6425;50.316;8.114;2024-03-06T05:24:01;68.3;;;13;;
12721;SDS011;6425;50.316;8.114;2024-03-06T05:27:00;68.3;;;13;;
12721;SDS011;6425;50.316;8.114;2024-03-06T05:30:00;308;;;23.9;;
12721;SDS011;6425;50.316;8.114;2024-03-06T05:33:00;319.1;;;24.9;;
12721;SDS011;6425;50.316;8.114;2024-03-06T05:36:00;319.1;;;24.9;;
12721;SDS011;6425;50.316;8.114;2024-03-06T05:39:00;205.9;;;17.2;;
12721;SDS011;6425;50.316;8.114;2024-03-06T05:42:00;205.9;;;17.2;;
12721;SDS011;6425;50.316;8.114;2024-03-06T05:45:00;244.3;;;18.3;;
12721;SDS011;6425;50.316;8.114;2024-03-06T05:48:00;156.9;;;15.9;;
12721;SDS011;6425;50.316;8.114;2024-03-06T05:51:00;156.9;;;15.9;;
12721;SDS011;6425;50.316;8.114;2024-03-06T05:54:00;76.8;;;12.4;;
12721;SDS011;6425;50.316;8.114;2024-03-06T05:57:00;76.8;;;12.4;;
12721;SDS011;6425;50.316;8.114;2024-03-06T06:00:01;68.7;;;12.1;;
12721;SDS011;6425;50.316;8.114;2024-03-06T06:03:00;66.4;;;12.2;;
12721;SDS011;6425;50.316;8.114;2024-03-06T06:06:00;66.4;;;12.2;;
12721;SDS011;6425;50.316;8.114;2024-03-06T06:09:00;38.7;;;11;;
12721;SDS011;6425;50.316;8.114;2024-03-06T06:12:00;38.7;;;11;;
12721;SDS011;6425;50.316;8.114;2024-03-06T06:15:00;25.7;;;9.4;;
12721;SDS011;6425;50.316;8.114;2024-03-06T06:18:00;19.5;;;8.5;;
12721;SDS011;6425;50.316;8.114;2024-03-06T06:21:00;19.5;;;8.5;;
12721;SDS011;6425;50.316;8.114;2024-03-06T06:24:01;16.8;;;8.3;;
12721;SDS011;6425;50.316;8.114;2024-03-06T06:27:00;16.8;;;8.3;;
12721;SDS011;6425;50.316;8.114;2024-03-06T06:30:00;16.5;;;8.6;;
12721;SDS011;6425;50.316;8.114;2024-03-06T06:33:00;15.1;;;8;;
12721;SDS011;6425;50.316;8.114;2024-03-06T06:36:00;15.1;;;8;;
12721;SDS011;6425;50.316;8.114;2024-03-06T06:39:00;17.2;;;8.2;;
12721;SDS011;6425;50.316;8.114;2024-03-06T06:42:00;17.2;;;8.2;;
12721;SDS011;6425;50.316;8.114;2024-03-06T06:45:00;14.1;;;6.9;;
12721;SDS011;6425;50.316;8.114;2024-03-06T06:48:00;15.3;;;7.5;;
12721;SDS011;6425;50.316;8.114;2024-03-06T06:51:00;15.3;;;7.5;;
12721;SDS011;6425;50.316;8.114;2024-03-06T06:54:00;16.4;;;8.3;;
12721;SDS011;6425;50.316;8.114;2024-03-06T06:57:00;16.4;;;8.3;;
12721;SDS011;6425;50.316;8.114;2024-03-06T07:00:00;24.7;;;11.8;;
12721;SDS011;6425;50.316;8.114;2024-03-06T07:03:00;18;;;9.3;;
12721;SDS011;6425;50.316;8.114;2024-03-06T07:06:00;18;;;9.3;;
12721;SDS011;6425;50.316;8.114;2024-03-06T07:09:00;17.4;;;9.3;;
12721;SDS011;6425;50.316;8.114;2024-03-06T07:12:01;17.4;;;9.3;;
12721;SDS011;6425;50.316;8.114;2024-03-06T07:15:00;18;;;9.1;;
12721;SDS011;6425;50.316;8.114;2024-03-06T07:18:00;25.5;;;12.8;;
12721;SDS011;6425;50.316;8.114;2024-03-06T07:21:00;25.5;;;12.8;;
12721;SDS011;6425;50.316;8.114;2024-03-06T07:24:02;24.5;;;12.7;;
12721;SDS011;6425;50.316;8.114;2024-03-06T07:27:00;24.5;;;12.7;;
12721;SDS011;6425;50.316;8.114;2024-03-06T07:30:00;30.4;;;14;;
12721;SDS011;6425;50.316;8.114;2024-03-06T07:33:00;30.9;;;14.1;;
12721;SDS011;6425;50.316;8.114;2024-03-06T07:36:00;30.9;;;14.1;;
12721;SDS011;6425;50.316;8.114;2024-03-06T07:39:00;39.2;;;15.2;;
12721;SDS011;6425;50.316;8.114;2024-03-06T07:42:00;39.2;;;15.2;;
12721;SDS011;6425;50.316;8.114;2024-03-06T07:45:00;57.1;;;13.5;;
12721;SDS011;6425;50.316;8.114;2024-03-06T07:48:00;85.1;;;15.1;;
12721;SDS011;6425;50.316;8.114;2024-03-06T07:51:00;85.1;;;15.1;;
12721;SDS011;6425;50.316;8.114;2024-03-06T07:54:00;96;;;17.6;;
12721;SDS011;6425;50.316;8.114;2024-03-06T07:57:00;96;;;17.6;;
12721;SDS011;6425;50.316;8.114;2024-03-06T08:00:00;109.5;;;19.8;;
12721;SDS011;6425;50.316;8.114;2024-03-06T08:03:00;87.3;;;22.8;;
12721;SDS011;6425;50.316;8.114;2024-03-06T08:06:00;87.3;;;22.8;;
12721;SDS011;6425;50.316;8.114;2024-03-06T08:09:00;146.8;;;21.9;;
12721;SDS011;6425;50.316;8.114;2024-03-06T08:12:00;139.4;;;22.2;;
12721;SDS011;6425;50.316;8.114;2024-03-06T08:15:00;139.4;;;22.2;;
12721;SDS011;6425;50.316;8.114;2024-03-06T08:18:00;91.9;;;19.1;;
12721;SDS011;6425;50.316;8.114;2024-03-06T08:21:00;91.9;;;19.1;;
12721;SDS011;6425;50.316;8.114;2024-03-06T08:24:00;82.4;;;19.2;;
12721;SDS011;6425;50.316;8.114;2024-03-06T08:27:00;80.7;;;19.8;;
12721;SDS011;6425;50.316;8.114;2024-03-06T08:30:00;80.7;;;19.8;;
12721;SDS011;6425;50.316;8.114;2024-03-06T08:33:00;73.8;;;18.5;;
12721;SDS011;6425;50.316;8.114;2024-03-06T08:36:00;73.8;;;18.5;;
12721;SDS011;6425;50.316;8.114;2024-03-06T08:39:00;73.1;;;17.9;;
12721;SDS011;6425;50.316;8.114;2024-03-06T08:42:00;78.8;;;18.8;;
12721;SDS011;6425;50.316;8.114;2024-03-06T08:45:00;78.8;;;18.8;;
12721;SDS011;6425;50.316;8.114;2024-03-06T08:48:00;94.8;;;20.1;;
12721;SDS011;6425;50.316;8.114;2024-03-06T08:51:00;94.8;;;20.1;;
12721;SDS011;6425;50.316;8.114;2024-03-06T08:54:00;79.9;;;20.7;;
12721;SDS011;6425;50.316;8.114;2024-03-06T08:57:00;58;;;19.2;;
12721;SDS011;6425;50.316;8.114;2024-03-06T09:00:01;58;;;19.2;;
12721;SDS011;6425;50.316;8.114;2024-03-06T09:03:00;52.7;;;18.6;;
12721;SDS011;6425;50.316;8.114;2024-03-06T09:06:00;52.7;;;18.6;;
12721;SDS011;6425;50.316;8.114;2024-03-06T09:09:00;46.3;;;17.6;;
12721;SDS011;6425;50.316;8.114;2024-03-06T09:12:00;48.5;;;17.8;;
12721;SDS011;6425;50.316;8.114;2024-03-06T09:15:00;48.5;;;17.8;;
12721;SDS011;6425;50.316;8.114;2024-03-06T09:18:00;47.1;;;17.5;;
12721;SDS011;6425;50.316;8.114;2024-03-06T09:21:00;47.1;;;17.5;;
12721;SDS011;6425;50.316;8.114;2024-03-06T09:24:00;44.8;;;17.1;;
12721;SDS011;6425;50.316;8.114;2024-03-06T09:27:00;43.7;;;16.9;;
12721;SDS011;6425;50.316;8.114;2024-03-06T09:30:00;43.7;;;16.9;;
12721;SDS011;6425;50.316;8.114;2024-03-06T09:33:00;41.4;;;16.1;;
12721;SDS011;6425;50.316;8.114;2024-03-06T09:36:00;41.4;;;16.1;;
12721;SDS011;6425;50.316;8.114;2024-03-06T09:39:00;36.5;;;16.3;;
12721;SDS011;6425;50.316;8.114;2024-03-06T09:42:00;40.7;;;15.9;;
12721;SDS011;6425;50.316;8.114;2024-03-06T09:45:00;40.7;;;15.9;;
12721;SDS011;6425;50.316;8.114;2024-03-06T09:48:01;67.2;;;16.9;;
12721;SDS011;6425;50.316;8.114;2024-03-06T09:51:00;67.2;;;16.9;;
12721;SDS011;6425;50.316;8.114;2024-03-06T09:54:00;42.8;;;16.9;;
12721;SDS011;6425;50.316;8.114;2024-03-06T09:57:00;36.8;;;16.4;;
12721;SDS011;6425;50.316;8.114;2024-03-06T10:00:00;36.8;;;16.4;;
12721;SDS011;6425;50.316;8.114;2024-03-06T10:03:00;55.4;;;15;;
12721;SDS011;6425;50.316;8.114;2024-03-06T10:06:00;55.4;;;15;;
12721;SDS011;6425;50.316;8.114;2024-03-06T10:09:03;29.4;;;15.4;;
12721;SDS011;6425;50.316;8.114;2024-03-06T10:12:00;29.3;;;14.6;;
12721;SDS011;6425;50.316;8.114;2024-03-06T10:15:00;29.3;;;14.6;;
12721;SDS011;6425;50.316;8.114;2024-03-06T10:18:15;28.5;;;15.9;;
12721;SDS011;6425;50.316;8.114;2024-03-06T10:21:00;28.5;;;15.9;;
12721;SDS011;6425;50.316;8.114;2024-03-06T10:24:00;30.2;;;15.9;;
12721;SDS011;6425;50.316;8.114;2024-03-06T10:27:00;32.3;;;16.4;;
12721;SDS011;6425;50.316;8.114;2024-03-06T10:30:00;32.3;;;16.4;;
12721;SDS011;6425;50.316;8.114;2024-03-06T10:33:00;28.3;;;15.7;;
12721;SDS011;6425;50.316;8.114;2024-03-06T10:36:00;28.3;;;15.7;;
12721;SDS011;6425;50.316;8.114;2024-03-06T10:39:00;32.4;;;17.6;;
12721;SDS011;6425;50.316;8.114;2024-03-06T10:42:00;46.1;;;24.7;;
12721;SDS011;6425;50.316;8.114;2024-03-06T10:45:00;46.1;;;24.7;;
12721;SDS011;6425;50.316;8.114;2024-03-06T10:48:00;39.3;;;20.7;;
12721;SDS011;6425;50.316;8.114;2024-03-06T10:51:00;39.3;;;20.7;;
12721;SDS011;6425;50.316;8.114;2024-03-06T10:54:00;37.4;;;19.6;;
12721;SDS011;6425;50.316;8.114;2024-03-06T10:57:00;33.7;;;18;;
12721;SDS011;6425;50.316;8.114;2024-03-06T11:00:00;33.7;;;18;;
12721;SDS011;6425;50.316;8.114;2024-03-06T11:03:00;28.5;;;18.1;;
12721;SDS011;6425;50.316;8.114;2024-03-06T11:06:00;28.5;;;18.1;;
12721;SDS011;6425;50.316;8.114;2024-03-06T11:09:00;29.7;;;18.4;;
12721;SDS011;6425;50.316;8.114;2024-03-06T11:12:01;32.7;;;18.9;;
12721;SDS011;6425;50.316;8.114;2024-03-06T11:15:00;32.7;;;18.9;;
12721;SDS011;6425;50.316;8.114;2024-03-06T11:18:25;31;;;18.5;;
12721;SDS011;6425;50.316;8.114;2024-03-06T11:21:01;30;;;18.3;;
12721;SDS011;6425;50.316;8.114;2024-03-06T11:24:18;29;;;18.2;;
12721;SDS011;6425;50.316;8.114;2024-03-06T11:27:00;31.3;;;18.8;;
12721;SDS011;6425;50.316;8.114;2024-03-06T11:30:03;31.3;;;18.8;;
12721;SDS011;6425;50.316;8.114;2024-03-06T11:33:00;32.3;;;18.8;;
12721;SDS011;6425;50.316;8.114;2024-03-06T11:36:18;31.5;;;18.7;;
12721;SDS011;6425;50.316;8.114;2024-03-06T11:39:01;31.5;;;18.7;;
12721;SDS011;6425;50.316;8.114;2024-03-06T11:42:00;29.3;;;18;;
12721;SDS011;6425;50.316;8.114;2024-03-06T11:45:00;29.3;;;18;;
12721;SDS011;6425;50.316;8.114;2024-03-06T11:48:00;31.9;;;19;;
12721;SDS011;6425;50.316;8.114;2024-03-06T11:51:00;28.8;;;17.9;;
12721;SDS011;6425;50.316;8.114;2024-03-06T11:54:00;28.8;;;17.9;;
12721;SDS011;6425;50.316;8.114;2024-03-06T11:57:00;32.1;;;20.2;;
12721;SDS011;6425;50.316;8.114;2024-03-06T12:00:02;32.1;;;20.2;;
12721;SDS011;6425;50.316;8.114;2024-03-06T12:03:00;31.6;;;20;;
12721;SDS011;6425;50.316;8.114;2024-03-06T12:06:00;32;;;20;;
12721;SDS011;6425;50.316;8.114;2024-03-06T12:09:00;32;;;20;;
12721;SDS011;6425;50.316;8.114;2024-03-06T12:12:00;27.5;;;18.1;;
12721;SDS011;6425;50.316;8.114;2024-03-06T12:15:03;27.5;;;18.1;;
12721;SDS011;6425;50.316;8.114;2024-03-06T12:18:00;28.4;;;19.5;;
12721;SDS011;6425;50.316;8.114;2024-03-06T12:21:00;27.5;;;18.5;;
12721;SDS011;6425;50.316;8.114;2024-03-06T12:24:02;27.5;;;18.5;;
12721;SDS011;6425;50.316;8.114;2024-03-06T12:27:00;32.7;;;21.9;;
12721;SDS011;6425;50.316;8.114;2024-03-06T12:30:00;32.7;;;21.9;;
12721;SDS011;6425;50.316;8.114;2024-03-06T12:33:00;32.6;;;21.9;;
12721;SDS011;6425;50.316;8.114;2024-03-06T12:36:03;27.5;;;18.2;;
12721;SDS011;6425;50.316;8.114;2024-03-06T12:39:00;27.5;;;18.2;;
12721;SDS011;6425;50.316;8.114;2024-03-06T12:42:00;29.7;;;19.9;;
12721;SDS011;6425;50.316;8.114;2024-03-06T12:45:00;29.7;;;19.9;;
12721;SDS011;6425;50.316;8.114;2024-03-06T12:48:00;28.7;;;18.6;;
12721;SDS011;6425;50.316;8.114;2024-03-06T12:51:00;29;;;18.6;;
12721;SDS011;6425;50.316;8.114;2024-03-06T12:54:00;29;;;18.6;;
12721;SDS011;6425;50.316;8.114;2024-03-06T12:57:00;26.3;;;18.3;;
12721;SDS011;6425;50.316;8.114;2024-03-06T13:00:00;26.3;;;18.3;;
12721;SDS011;6425;50.316;8.114;2024-03-06T13:03:00;28.1;;;20.8;;
12721;SDS011;6425;50.316;8.114;2024-03-06T13:06:00;26.2;;;18.6;;
12721;SDS011;6425;50.316;8.114;2024-03-06T13:09:00;26.2;;;18.6;;
12721;SDS011;6425;50.316;8.114;2024-03-06T13:12:00;26.6;;;18.5;;
12721;SDS011;6425;50.316;8.114;2024-03-06T13:15:00;26.6;;;18.5;;
12721;SDS011;6425;50.316;8.114;2024-03-06T13:18:00;27.5;;;19.5;;
12721;SDS011;6425;50.316;8.114;2024-03-06T13:21:00;27.6;;;18.9;;
12721;SDS011;6425;50.316;8.114;2024-03-06T13:24:01;27.6;;;18.9;;
12721;SDS011;6425;50.316;8.114;2024-03-06T13:27:00;24.1;;;17.7;;
12721;SDS011;6425;50.316;8.114;2024-03-06T13:30:00;24.1;;;17.7;;
12721;SDS011;6425;50.316;8.114;2024-03-06T13:33:00;25.1;;;18;;
12721;SDS011;6425;50.316;8.114;2024-03-06T13:36:00;24.6;;;17.3;;
12721;SDS011;6425;50.316;8.114;2024-03-06T13:39:00;24.6;;;17.3;;
12721;SDS011;6425;50.316;8.114;2024-03-06T13:42:00;22.9;;;16.7;;
12721;SDS011;6425;50.316;8.114;2024-03-06T13:45:00;22.9;;;16.7;;
12721;SDS011;6425;50.316;8.114;2024-03-06T13:48:00;24;;;17.8;;
12721;SDS011;6425;50.316;8.114;2024-03-06T13:51:00;22.9;;;18.4;;
12721;SDS011;6425;50.316;8.114;2024-03-06T13:54:00;22.9;;;18.4;;
12721;SDS011;6425;50.316;8.114;2024-03-06T13:57:00;22.7;;;18.2;;
12721;SDS011;6425;50.316;8.114;2024-03-06T14:00:00;22.7;;;18.2;;
12721;SDS011;6425;50.316;8.114;2024-03-06T14:03:00;24.3;;;18.1;;
12721;SDS011;6425;50.316;8.114;2024-03-06T14:06:00;23;;;18.3;;
12721;SDS011;6425;50.316;8.114;2024-03-06T14:09:00;23;;;18.3;;
12721;SDS011;6425;50.316;8.114;2024-03-06T14:12:00;22;;;17.8;;
12721;SDS011;6425;50.316;8.114;2024-03-06T14:15:00;22;;;17.8;;
12721;SDS011;6425;50.316;8.114;2024-03-06T14:18:00;24.6;;;18.4;;
12721;SDS011;6425;50.316;8.114;2024-03-06T14:21:00;16.8;;;14.8;;
12721;SDS011;6425;50.316;8.114;2024-03-06T14:24:00;16.8;;;14.8;;
12721;SDS011;6425;50.316;8.114;2024-03-06T14:27:00;15.2;;;13.7;;
12721;SDS011;6425;50.316;8.114;2024-03-06T14:30:00;15.2;;;13.7;;
12721;SDS011;6425;50.316;8.114;2024-03-06T14:33:00;15.1;;;13.5;;
12721;SDS011;6425;50.316;8.114;2024-03-06T14:36:01;16.7;;;14.1;;
12721;SDS011;6425;50.316;8.114;2024-03-06T14:39:00;16.7;;;14.1;;
12721;SDS011;6425;50.316;8.114;2024-03-06T14:42:00;15.1;;;13.2;;
12721;SDS011;6425;50.316;8.114;2024-03-06T14:45:00;15.1;;;13.2;;
12721;SDS011;6425;50.316;8.114;2024-03-06T14:48:00;15.5;;;13.6;;
12721;SDS011;6425;50.316;8.114;2024-03-06T14:51:00;17.2;;;14.7;;
12721;SDS011;6425;50.316;8.114;2024-03-06T14:54:00;17.2;;;14.7;;
12721;SDS011;6425;50.316;8.114;2024-03-06T14:57:00;17;;;14;;
12721;SDS011;6425;50.316;8.114;2024-03-06T15:00:00;17.7;;;15.1;;
12721;SDS011;6425;50.316;8.114;2024-03-06T15:03:00;17.7;;;15.1;;
12721;SDS011;6425;50.316;8.114;2024-03-06T15:06:00;16.5;;;14.8;;
12721;SDS011;6425;50.316;8.114;2024-03-06T15:09:00;16.5;;;14.8;;
12721;SDS011;6425;50.316;8.114;2024-03-06T15:12:00;15.9;;;14.1;;
12721;SDS011;6425;50.316;8.114;2024-03-06T15:15:01;16.4;;;14;;
12721;SDS011;6425;50.316;8.114;2024-03-06T15:18:00;16.4;;;14;;
12721;SDS011;6425;50.316;8.114;2024-03-06T15:21:00;15.9;;;13.5;;
12721;SDS011;6425;50.316;8.114;2024-03-06T15:24:00;15.9;;;13.5;;
12721;SDS011;6425;50.316;8.114;2024-03-06T15:27:00;15.6;;;13.9;;
12721;SDS011;6425;50.316;8.114;2024-03-06T15:30:00;15.9;;;14.3;;
12721;SDS011;6425;50.316;8.114;2024-03-06T15:33:00;15.9;;;14.3;;
12721;SDS011;6425;50.316;8.114;2024-03-06T15:36:00;15.8;;;13.5;;
12721;SDS011;6425;50.316;8.114;2024-03-06T15:39:00;15.8;;;13.5;;
12721;SDS011;6425;50.316;8.114;2024-03-06T15:42:00;26.5;;;20.2;;
12721;SDS011;6425;50.316;8.114;2024-03-06T15:45:00;16.1;;;14.2;;
12721;SDS011;6425;50.316;8.114;2024-03-06T15:48:00;16.1;;;14.2;;
12721;SDS011;6425;50.316;8.114;2024-03-06T15:51:00;19.1;;;15.4;;
12721;SDS011;6425;50.316;8.114;2024-03-06T15:54:00;19.1;;;15.4;;
12721;SDS011;6425;50.316;8.114;2024-03-06T15:57:00;15.8;;;14.1;;
12721;SDS011;6425;50.316;8.114;2024-03-06T16:00:00;16.2;;;13.5;;
12721;SDS011;6425;50.316;8.114;2024-03-06T16:03:00;16.2;;;13.5;;
12721;SDS011;6425;50.316;8.114;2024-03-06T16:06:00;16.7;;;13.7;;
12721;SDS011;6425;50.316;8.114;2024-03-06T16:09:00;16.7;;;13.7;;
12721;SDS011;6425;50.316;8.114;2024-03-06T16:12:00;18.2;;;13.8;;
12721;SDS011;6425;50.316;8.114;2024-03-06T16:15:00;16.9;;;14.4;;
12721;SDS011;6425;50.316;8.114;2024-03-06T16:18:00;16.9;;;14.4;;
12721;SDS011;6425;50.316;8.114;2024-03-06T16:21:00;16.9;;;14.7;;
12721;SDS011;6425;50.316;8.114;2024-03-06T16:24:00;16.9;;;14.7;;
12721;SDS011;6425;50.316;8.114;2024-03-06T16:27:00;18.5;;;15.3;;
12721;SDS011;6425;50.316;8.114;2024-03-06T16:30:00;21.3;;;17;;
12721;SDS011;6425;50.316;8.114;2024-03-06T16:33:00;21.3;;;17;;
12721;SDS011;6425;50.316;8.114;2024-03-06T16:36:00;17;;;12.7;;
12721;SDS011;6425;50.316;8.114;2024-03-06T16:39:00;17;;;12.7;;
12721;SDS011;6425;50.316;8.114;2024-03-06T16:42:00;17.2;;;13;;
12721;SDS011;6425;50.316;8.114;2024-03-06T16:45:00;18.2;;;13.5;;
12721;SDS011;6425;50.316;8.114;2024-03-06T16:48:00;18.2;;;13.5;;
12721;SDS011;6425;50.316;8.114;2024-03-06T16:51:00;16.7;;;12.2;;
12721;SDS011;6425;50.316;8.114;2024-03-06T16:54:00;16.7;;;12.2;;
12721;SDS011;6425;50.316;8.114;2024-03-06T16:57:00;19.7;;;13.3;;
12721;SDS011;6425;50.316;8.114;2024-03-06T17:00:00;19.2;;;12.7;;
12721;SDS011;6425;50.316;8.114;2024-03-06T17:03:00;19.2;;;12.7;;
12721;SDS011;6425;50.316;8.114;2024-03-06T17:06:00;19.5;;;13.2;;
12721;SDS011;6425;50.316;8.114;2024-03-06T17:09:00;19.5;;;13.2;;
12721;SDS011;6425;50.316;8.114;2024-03-06T17:12:00;19.4;;;12.7;;
12721;SDS011;6425;50.316;8.114;2024-03-06T17:15:00;18.9;;;12.9;;
12721;SDS011;6425;50.316;8.114;2024-03-06T17:18:00;18.9;;;12.9;;
12721;SDS011;6425;50.316;8.114;2024-03-06T17:21:00;18.9;;;12.4;;
12721;SDS011;6425;50.316;8.114;2024-03-06T17:24:01;18.9;;;12.4;;
12721;SDS011;6425;50.316;8.114;2024-03-06T17:27:00;17.9;;;12.2;;
12721;SDS011;6425;50.316;8.114;2024-03-06T17:30:00;20.6;;;12.5;;
12721;SDS011;6425;50.316;8.114;2024-03-06T17:33:00;20.6;;;12.5;;
12721;SDS011;6425;50.316;8.114;2024-03-06T17:36:00;22;;;13.4;;
12721;SDS011;6425;50.316;8.114;2024-03-06T17:39:00;22;;;13.4;;
12721;SDS011;6425;50.316;8.114;2024-03-06T17:42:00;22.6;;;13;;
12721;SDS011;6425;50.316;8.114;2024-03-06T17:45:00;23.7;;;14.9;;
12721;SDS011;6425;50.316;8.114;2024-03-06T17:48:00;23.7;;;14.9;;
12721;SDS011;6425;50.316;8.114;2024-03-06T17:51:00;25.7;;;14.6;;
12721;SDS011;6425;50.316;8.114;2024-03-06T17:54:00;25.7;;;14.6;;
12721;SDS011;6425;50.316;8.114;2024-03-06T17:57:00;25.2;;;14.4;;
12721;SDS011;6425;50.316;8.114;2024-03-06T18:00:00;24.4;;;15.3;;
12721;SDS011;6425;50.316;8.114;2024-03-06T18:03:00;24.4;;;15.3;;
12721;SDS011;6425;50.316;8.114;2024-03-06T18:06:00;27.2;;;15.5;;
12721;SDS011;6425;50.316;8.114;2024-03-06T18:09:00;27.2;;;15.5;;
12721;SDS011;6425;50.316;8.114;2024-03-06T18:12:00;25;;;13.9;;
12721;SDS011;6425;50.316;8.114;2024-03-06T18:15:00;25;;;14.3;;
12721;SDS011;6425;50.316;8.114;2024-03-06T18:18:00;25;;;14.3;;
12721;SDS011;6425;50.316;8.114;2024-03-06T18:21:00;25.5;;;14.3;;
12721;SDS011;6425;50.316;8.114;2024-03-06T18:24:00;25.9;;;14.4;;
12721;SDS011;6425;50.316;8.114;2024-03-06T18:27:00;26.3;;;14.5;;
12721;SDS011;6425;50.316;8.114;2024-03-06T18:30:00;25.8;;;15.1;;